createdAt,value
2019-01-20T00:01:50.688Z,28.62
2019-01-20T00:04:20.629Z,31.02
2019-01-20T00:06:50.524Z,34.50
2019-01-20T00:09:20.447Z,28.47
2019-01-20T00:11:50.473Z,27.67
2019-01-20T00:14:20.345Z,31.27
2019-01-20T00:16:50.242Z,28.38
2019-01-20T00:19:20.280Z,38.60
2019-01-20T00:21:51.423Z,30.10
2019-01-20T00:24:21.507Z,29.07
2019-01-20T00:26:51.543Z,30.43
2019-01-20T00:29:21.587Z,28.17
2019-01-20T00:31:51.561Z,36.05
2019-01-20T00:34:21.675Z,32.17
2019-01-20T00:36:51.610Z,28.50
2019-01-20T00:39:22.007Z,33.92
2019-01-20T00:41:51.854Z,30.80
2019-01-20T00:44:21.825Z,27.25
2019-01-20T00:46:51.747Z,27.00
2019-01-20T00:49:21.526Z,41.55
2019-01-20T00:51:51.336Z,35.98
2019-01-20T00:54:21.195Z,24.82
2019-01-20T00:56:52.518Z,27.42
2019-01-20T00:59:22.460Z,33.20
2019-01-20T01:01:52.310Z,29.52
2019-01-20T01:04:22.164Z,28.27
2019-01-20T01:06:52.040Z,30.35
2019-01-20T01:09:21.816Z,30.60
2019-01-20T01:11:51.638Z,31.97
2019-01-20T01:14:21.586Z,31.17
2019-01-20T01:16:52.385Z,28.10
2019-01-20T01:19:22.256Z,33.18
2019-01-20T01:21:52.287Z,25.65
2019-01-20T01:24:22.169Z,31.70
2019-01-20T01:26:52.306Z,28.67
2019-01-20T01:29:22.158Z,26.90
2019-01-20T01:31:52.366Z,32.20
2019-01-20T01:34:22.206Z,34.15
2019-01-20T01:36:52.055Z,30.37
2019-01-20T01:39:23.049Z,31.05
2019-01-20T01:41:53.868Z,34.20
2019-01-20T01:44:23.806Z,30.32
2019-01-20T01:46:53.618Z,32.65
2019-01-20T01:49:23.388Z,30.70
2019-01-20T01:51:53.304Z,27.45
2019-01-20T01:54:23.123Z,29.63
2019-01-20T01:56:52.957Z,30.30
2019-01-20T01:59:22.825Z,28.92
2019-01-20T02:01:52.669Z,30.40
2019-01-20T02:04:22.498Z,28.60
2019-01-20T02:06:52.402Z,35.25
2019-01-20T02:09:22.276Z,35.52
2019-01-20T02:11:52.026Z,30.50
2019-01-20T02:14:21.856Z,34.30
2019-01-20T02:16:51.717Z,24.95
2019-01-20T02:19:21.506Z,27.95
2019-01-20T02:21:51.332Z,30.88
2019-01-20T02:24:21.052Z,37.53
2019-01-20T02:26:50.963Z,29.52
2019-01-20T02:29:20.872Z,30.55
2019-01-20T02:31:50.651Z,30.35
2019-01-20T02:34:21.488Z,28.25
2019-01-20T02:36:51.379Z,32.28
2019-01-20T02:39:21.282Z,29.48
2019-01-20T02:41:55.330Z,36.58
2019-01-20T02:44:22.641Z,29.75
2019-01-20T02:46:52.553Z,30.50
2019-01-20T02:49:22.486Z,36.20
2019-01-20T02:51:52.409Z,32.13
2019-01-20T02:54:22.247Z,28.40
2019-01-20T02:56:52.061Z,35.03
2019-01-20T02:59:21.816Z,36.45
2019-01-20T03:01:51.727Z,37.85
2019-01-20T03:04:25.585Z,32.67
2019-01-20T03:06:55.634Z,32.20
2019-01-20T03:09:25.656Z,30.37
2019-01-20T03:12:03.246Z,30.00
2019-01-20T03:14:27.615Z,31.97
2019-01-20T03:16:57.480Z,35.85
2019-01-20T03:19:27.397Z,37.65
2019-01-20T03:21:57.216Z,34.80
2019-01-20T03:24:27.058Z,33.73
2019-01-20T03:26:57.041Z,35.78
2019-01-20T03:29:26.717Z,34.55
2019-01-20T03:31:57.050Z,32.58
2019-01-20T03:34:26.812Z,33.58
2019-01-20T03:36:56.739Z,37.35
2019-01-20T03:39:26.590Z,30.35
2019-01-20T03:41:56.378Z,38.10
2019-01-20T03:44:26.319Z,33.40
2019-01-20T03:46:56.547Z,35.40
2019-01-20T03:49:26.519Z,35.43
2019-01-20T03:51:56.419Z,34.80
2019-01-20T03:54:26.267Z,36.93
2019-01-20T03:56:56.121Z,31.62
2019-01-20T03:59:26.003Z,37.42
2019-01-20T04:01:56.759Z,31.75
2019-01-20T04:04:26.631Z,34.25
2019-01-20T04:06:56.524Z,38.10
2019-01-20T04:09:26.379Z,30.85
2019-01-20T04:11:56.336Z,39.00
2019-01-20T04:14:26.181Z,33.70
2019-01-20T04:16:56.096Z,31.02
2019-01-20T04:19:26.018Z,37.05
2019-01-20T04:21:55.825Z,28.30
2019-01-20T04:24:25.697Z,30.60
2019-01-20T04:26:55.424Z,34.85
2019-01-20T04:29:25.191Z,30.52
2019-01-20T04:31:55.109Z,36.38
2019-01-20T04:34:25.039Z,31.80
2019-01-20T04:36:54.809Z,36.42
2019-01-20T04:39:26.779Z,38.80
2019-01-20T04:41:56.692Z,35.45
2019-01-20T04:44:26.547Z,34.98
2019-01-20T04:46:56.321Z,35.15
2019-01-20T04:49:26.129Z,33.35
2019-01-20T04:51:55.968Z,39.53
2019-01-20T04:54:25.746Z,34.03
2019-01-20T04:56:55.576Z,34.15
2019-01-20T04:59:25.475Z,38.05
2019-01-20T05:01:55.340Z,36.63
2019-01-20T05:04:25.060Z,37.70
2019-01-20T05:06:54.793Z,42.17
2019-01-20T05:09:24.589Z,37.70
2019-01-20T05:11:54.345Z,37.58
2019-01-20T05:14:24.156Z,37.93
2019-01-20T05:16:54.566Z,39.75
2019-01-20T05:19:24.407Z,41.63
2019-01-20T05:21:54.231Z,40.67
2019-01-20T05:24:24.129Z,33.08
2019-01-20T05:26:53.945Z,37.80
2019-01-20T05:29:23.772Z,34.80
2019-01-20T05:31:53.552Z,37.03
2019-01-20T05:34:23.444Z,38.17
2019-01-20T05:36:53.346Z,42.80
2019-01-20T05:39:23.106Z,34.67
2019-01-20T05:41:52.997Z,38.53
2019-01-20T05:44:22.891Z,44.75
2019-01-20T05:46:52.657Z,42.08
2019-01-20T05:49:22.572Z,33.23
2019-01-20T05:51:52.330Z,39.50
2019-01-20T05:54:23.022Z,32.75
2019-01-20T05:56:54.208Z,39.90
2019-01-20T05:59:24.228Z,40.17
2019-01-20T06:01:54.121Z,45.08
2019-01-20T06:04:24.026Z,39.60
2019-01-20T06:06:53.945Z,36.42
2019-01-20T06:09:23.788Z,45.35
2019-01-20T06:11:53.524Z,42.50
2019-01-20T06:14:23.434Z,39.50
2019-01-20T06:16:53.178Z,44.23
2019-01-20T06:19:23.034Z,42.93
2019-01-20T06:21:52.898Z,43.13
2019-01-20T06:24:22.828Z,42.33
2019-01-20T06:27:01.904Z,41.95
2019-01-20T06:29:35.389Z,35.83
2019-01-20T06:32:05.324Z,40.52
2019-01-20T06:34:35.177Z,37.38
2019-01-20T06:37:04.948Z,35.35
2019-01-20T06:39:34.886Z,39.73
2019-01-20T06:42:05.724Z,47.25
2019-01-20T06:44:35.641Z,33.78
2019-01-20T06:47:05.507Z,39.03
2019-01-20T06:49:35.381Z,36.10
2019-01-20T06:52:07.411Z,40.08
2019-01-20T06:54:37.436Z,33.35
2019-01-20T06:57:08.980Z,35.83
2019-01-20T06:59:38.815Z,37.58
2019-01-20T07:02:08.727Z,49.38
2019-01-20T07:04:38.499Z,40.23
2019-01-20T07:07:08.698Z,38.28
2019-01-20T07:09:40.794Z,42.95
2019-01-20T07:12:10.635Z,40.43
2019-01-20T07:14:40.419Z,36.48
2019-01-20T07:17:10.359Z,36.53
2019-01-20T07:19:40.235Z,36.75
2019-01-20T07:22:11.802Z,43.28
2019-01-20T07:24:44.547Z,42.55
2019-01-20T07:27:17.829Z,36.90
2019-01-20T07:29:48.780Z,41.80
2019-01-20T07:32:19.707Z,45.25
2019-01-20T07:34:49.673Z,43.00
2019-01-20T07:37:22.463Z,36.60
2019-01-20T07:39:54.657Z,42.23
2019-01-20T07:42:24.493Z,40.00
2019-01-20T07:44:54.489Z,47.98
2019-01-20T07:47:24.378Z,43.48
2019-01-20T07:49:54.322Z,43.65
2019-01-20T07:52:24.056Z,37.17
2019-01-20T07:54:54.429Z,39.88
2019-01-20T07:57:24.176Z,36.77
2019-01-20T07:59:54.057Z,36.35
2019-01-20T08:02:28.091Z,38.63
2019-01-20T08:04:57.949Z,40.65
2019-01-20T08:07:27.687Z,42.35
2019-01-20T08:09:57.505Z,42.62
2019-01-20T08:12:27.347Z,39.50
2019-01-20T08:14:57.213Z,40.78
2019-01-20T08:17:34.839Z,43.05
2019-01-20T08:20:01.719Z,39.45
2019-01-20T08:22:31.772Z,46.37
2019-01-20T08:25:01.646Z,39.50
2019-01-20T08:27:31.507Z,40.95
2019-01-20T08:30:01.445Z,42.58
2019-01-20T08:32:32.639Z,45.10
2019-01-20T08:35:02.526Z,43.92
2019-01-20T08:37:33.376Z,41.45
2019-01-20T08:40:17.655Z,48.78
2019-01-20T08:42:47.534Z,37.40
2019-01-20T08:45:44.813Z,48.95
2019-01-20T08:48:17.602Z,50.45
2019-01-20T08:50:48.592Z,39.42
2019-01-20T08:53:19.720Z,41.30
2019-01-20T08:55:49.650Z,47.90
2019-01-20T08:58:20.739Z,39.78
2019-01-20T09:00:50.592Z,45.03
2019-01-20T09:03:20.376Z,45.58
2019-01-20T09:05:50.213Z,38.50
2019-01-20T09:08:20.723Z,41.48
2019-01-20T09:10:50.656Z,41.50
2019-01-20T09:13:20.933Z,41.28
2019-01-20T09:15:50.898Z,43.58
2019-01-20T09:18:20.802Z,42.33
2019-01-20T09:20:51.620Z,42.80
2019-01-20T09:23:24.994Z,43.30
2019-01-20T09:25:54.908Z,38.78
2019-01-20T09:28:24.826Z,39.73
2019-01-20T09:30:58.104Z,37.60
2019-01-20T09:33:28.839Z,40.58
2019-01-20T09:36:00.786Z,47.25
2019-01-20T09:38:30.621Z,39.50
2019-01-20T09:41:02.052Z,38.28
2019-01-20T09:43:31.896Z,39.85
2019-01-20T09:46:03.746Z,46.40
2019-01-20T09:48:33.660Z,39.48
2019-01-20T09:51:06.828Z,41.90
2019-01-20T09:53:36.764Z,41.83
2019-01-20T09:56:06.801Z,43.08
2019-01-20T09:58:36.726Z,44.25
2019-01-20T10:01:06.754Z,47.53
2019-01-20T10:03:39.399Z,51.05
2019-01-20T10:06:10.904Z,41.68
2019-01-20T10:08:41.049Z,46.48
2019-01-20T10:11:13.044Z,48.58
2019-01-20T10:13:45.815Z,50.28
2019-01-20T10:16:15.707Z,47.83
2019-01-20T10:18:45.625Z,47.53
2019-01-20T10:21:15.868Z,54.30
2019-01-20T10:23:49.440Z,48.25
2019-01-20T10:26:19.502Z,46.88
2019-01-20T10:28:49.431Z,48.42
2019-01-20T10:31:19.471Z,48.98
2019-01-20T10:33:49.578Z,48.83
2019-01-20T10:36:19.853Z,48.63
2019-01-20T10:38:49.992Z,49.77
2019-01-20T10:41:19.884Z,52.33
2019-01-20T10:43:50.061Z,47.23
2019-01-20T10:46:21.982Z,46.85
2019-01-20T10:48:51.948Z,48.42
2019-01-20T10:51:25.614Z,53.25
2019-01-20T10:53:56.399Z,51.37
2019-01-20T10:56:26.253Z,51.33
2019-01-20T10:58:56.205Z,46.08
2019-01-20T11:01:26.627Z,52.93
2019-01-20T11:03:56.518Z,48.63
2019-01-20T11:06:26.513Z,43.90
2019-01-20T11:08:57.864Z,58.52
2019-01-20T11:11:27.855Z,50.92
2019-01-20T11:13:58.445Z,52.33
2019-01-20T11:16:28.459Z,48.28
2019-01-20T11:18:58.394Z,43.63
2019-01-20T11:21:28.851Z,54.42
2019-01-20T11:23:58.909Z,63.23
2019-01-20T11:26:28.893Z,55.03
2019-01-20T11:29:01.574Z,50.70
2019-01-20T11:31:31.473Z,50.17
2019-01-20T11:34:01.450Z,52.25
2019-01-20T11:36:31.672Z,48.38
2019-01-20T11:39:04.436Z,49.53
2019-01-20T11:41:34.470Z,49.15
2019-01-20T11:44:04.385Z,54.77
2019-01-20T11:46:34.241Z,55.20
2019-01-20T11:49:04.200Z,56.08
2019-01-20T11:51:35.353Z,56.37
2019-01-20T11:54:05.239Z,50.50
2019-01-20T11:56:35.149Z,59.08
2019-01-20T11:59:05.009Z,58.40
2019-01-20T12:01:35.053Z,58.63
2019-01-20T12:04:05.047Z,54.33
2019-01-20T12:06:37.739Z,61.80
2019-01-20T12:09:08.874Z,60.90
2019-01-20T12:11:38.729Z,57.78
2019-01-20T12:14:10.140Z,56.23
2019-01-20T12:16:41.381Z,52.23
2019-01-20T12:19:11.326Z,56.58
2019-01-20T12:21:41.611Z,57.83
2019-01-20T12:24:16.061Z,63.75
2019-01-20T12:26:45.843Z,58.58
2019-01-20T12:29:15.815Z,61.92
2019-01-20T12:31:45.576Z,58.38
2019-01-20T12:34:15.448Z,61.92
2019-01-20T12:36:48.371Z,64.72
2019-01-20T12:39:18.699Z,59.75
2019-01-20T12:41:48.630Z,62.23
2019-01-20T12:44:18.751Z,64.15
2019-01-20T12:46:48.708Z,62.73
2019-01-20T12:49:18.584Z,61.85
2019-01-20T12:51:48.548Z,64.90
2019-01-20T12:54:18.465Z,63.38
2019-01-20T12:56:48.587Z,59.93
2019-01-20T12:59:18.448Z,63.68
2019-01-20T13:01:48.365Z,65.85
2019-01-20T13:04:18.235Z,63.65
2019-01-20T13:06:48.124Z,54.55
2019-01-20T13:09:18.241Z,64.62
2019-01-20T13:11:48.293Z,63.87
2019-01-20T13:14:18.447Z,58.73
2019-01-20T13:16:48.704Z,51.73
2019-01-20T13:19:19.811Z,62.27
2019-01-20T13:21:49.695Z,59.85
2019-01-20T13:24:19.657Z,62.58
2019-01-20T13:26:51.250Z,60.83
2019-01-20T13:29:21.153Z,56.83
2019-01-20T13:31:51.003Z,61.08
2019-01-20T13:34:20.945Z,59.90
2019-01-20T13:36:51.010Z,58.83
2019-01-20T13:39:25.192Z,57.13
2019-01-20T13:41:55.169Z,64.60
2019-01-20T13:44:25.056Z,66.87
2019-01-20T13:46:55.545Z,63.58
2019-01-20T13:49:25.490Z,60.30
2019-01-20T13:51:55.413Z,63.78
2019-01-20T13:54:25.376Z,57.53
2019-01-20T13:57:03.806Z,63.42
2019-01-20T13:59:33.640Z,60.20
2019-01-20T14:02:03.530Z,60.65
2019-01-20T14:04:33.522Z,60.33
2019-01-20T14:07:03.366Z,59.23
2019-01-20T14:09:33.364Z,55.12
2019-01-20T14:12:06.435Z,61.10
2019-01-20T14:14:36.277Z,59.38
2019-01-20T14:17:07.993Z,59.73
2019-01-20T14:19:37.953Z,55.95
2019-01-20T14:22:07.959Z,58.33
2019-01-20T14:24:40.909Z,60.78
2019-01-20T14:27:11.406Z,62.80
2019-01-20T14:29:41.545Z,64.10
2019-01-20T14:32:13.227Z,64.47
2019-01-20T14:34:43.163Z,56.73
2019-01-20T14:37:13.044Z,54.83
2019-01-20T14:39:44.325Z,62.17
2019-01-20T14:42:14.109Z,62.85
2019-01-20T14:44:48.453Z,64.12
2019-01-20T14:47:18.450Z,56.08
2019-01-20T14:49:48.321Z,54.13
2019-01-20T14:52:18.144Z,53.02
2019-01-20T14:54:48.127Z,61.42
2019-01-20T14:57:18.007Z,56.20
2019-01-20T14:59:48.241Z,76.25
2019-01-20T15:02:18.169Z,60.95
2019-01-20T15:04:48.036Z,59.83
2019-01-20T15:07:18.046Z,64.53
2019-01-20T15:09:47.961Z,59.65
2019-01-20T15:12:18.088Z,63.45
2019-01-20T15:14:48.080Z,63.65
2019-01-20T15:17:18.337Z,64.05
2019-01-20T15:19:48.485Z,67.22
2019-01-20T15:22:20.516Z,73.75
2019-01-20T15:24:50.361Z,66.22
2019-01-20T15:27:20.326Z,68.55
2019-01-20T15:29:52.014Z,64.50
2019-01-20T15:32:21.927Z,60.45
2019-01-20T15:34:53.438Z,65.55
2019-01-20T15:37:23.397Z,68.47
2019-01-20T15:39:53.291Z,69.05
2019-01-20T15:42:23.208Z,66.55
2019-01-20T15:44:53.117Z,67.03
2019-01-20T15:47:23.193Z,65.42
2019-01-20T15:49:52.973Z,65.55
2019-01-20T15:52:22.905Z,68.40
2019-01-20T15:54:52.910Z,70.75
2019-01-20T15:57:22.971Z,73.15
2019-01-20T15:59:53.033Z,66.87
2019-01-20T16:02:23.040Z,65.32
2019-01-20T16:04:53.045Z,76.17
2019-01-20T16:07:23.049Z,79.62
2019-01-20T16:09:53.042Z,69.32
2019-01-20T16:12:23.010Z,67.95
2019-01-20T16:14:53.023Z,70.35
2019-01-20T16:17:23.151Z,71.47
2019-01-20T16:19:53.142Z,71.90
2019-01-20T16:22:23.070Z,72.37
2019-01-20T16:24:53.178Z,74.12
2019-01-20T16:27:23.371Z,65.03
2019-01-20T16:29:53.439Z,70.83
2019-01-20T16:32:26.385Z,70.85
2019-01-20T16:35:01.408Z,68.10
2019-01-20T16:37:32.348Z,73.00
2019-01-20T16:40:02.368Z,71.02
2019-01-20T16:42:32.400Z,69.87
2019-01-20T16:45:02.352Z,73.07
2019-01-20T16:47:32.344Z,76.33
2019-01-20T16:50:02.535Z,76.60
2019-01-20T16:52:32.600Z,76.02
2019-01-20T16:55:02.611Z,70.42
2019-01-20T16:57:32.515Z,73.97
2019-01-20T17:00:04.633Z,78.20
2019-01-20T17:02:34.641Z,71.35
2019-01-20T17:05:05.931Z,75.42
2019-01-20T17:07:35.870Z,72.82
2019-01-20T17:10:09.355Z,80.15
2019-01-20T17:12:39.198Z,77.53
2019-01-20T17:15:11.263Z,77.40
2019-01-20T17:17:41.102Z,78.57
2019-01-20T17:20:14.131Z,77.78
2019-01-20T17:22:50.516Z,73.62
2019-01-20T17:25:20.610Z,78.95
2019-01-20T17:27:50.763Z,78.97
2019-01-20T17:30:24.876Z,70.52
2019-01-20T17:32:55.564Z,73.95
2019-01-20T17:35:28.382Z,75.00
2019-01-20T17:37:58.327Z,71.97
2019-01-20T17:40:28.440Z,78.25
2019-01-20T17:42:58.339Z,73.80
2019-01-20T17:45:31.059Z,67.82
2019-01-20T17:48:07.581Z,73.02
2019-01-20T17:50:39.161Z,80.55
2019-01-20T17:53:10.605Z,77.20
2019-01-20T17:55:40.991Z,71.60
2019-01-20T17:58:10.897Z,71.57
2019-01-20T18:00:57.967Z,76.33
2019-01-20T18:03:28.067Z,78.83
2019-01-20T18:06:02.270Z,69.12
2019-01-20T18:08:31.002Z,83.07
2019-01-20T18:11:00.933Z,77.67
2019-01-20T18:13:31.003Z,75.97
2019-01-20T18:16:00.997Z,78.67
2019-01-20T18:18:30.956Z,95.75
2019-01-20T18:21:03.321Z,97.65
2019-01-20T18:23:36.127Z,87.65
2019-01-20T18:26:06.024Z,88.92
2019-01-20T18:28:36.057Z,88.45
2019-01-20T18:31:08.529Z,82.22
2019-01-20T18:33:38.547Z,82.45
2019-01-20T18:36:08.647Z,82.15
2019-01-20T18:38:38.615Z,78.52
2019-01-20T18:41:08.556Z,85.55
2019-01-20T18:43:42.614Z,81.63
2019-01-20T18:46:12.734Z,76.95
2019-01-20T18:48:42.655Z,92.85
2019-01-20T18:51:12.668Z,82.67
2019-01-20T18:53:43.866Z,94.35
2019-01-20T18:56:13.827Z,94.15
2019-01-20T18:58:46.403Z,94.10
2019-01-20T19:01:17.515Z,86.35
2019-01-20T19:03:50.307Z,95.83
2019-01-20T19:06:20.917Z,98.60
2019-01-20T19:08:52.958Z,98.80
2019-01-20T19:11:23.013Z,109.07
2019-01-20T19:13:53.256Z,122.95
2019-01-20T19:16:33.689Z,110.10
2019-01-20T19:19:03.667Z,114.47
2019-01-20T19:21:34.377Z,107.75
2019-01-20T19:24:04.301Z,107.22
2019-01-20T19:26:34.298Z,106.92
2019-01-20T19:29:04.658Z,102.05
2019-01-20T19:31:34.520Z,108.12
2019-01-20T19:34:05.788Z,105.90
2019-01-20T19:36:35.705Z,109.25
2019-01-20T19:39:08.175Z,105.90
2019-01-20T19:41:38.176Z,109.17
2019-01-20T19:44:09.843Z,101.02
2019-01-20T19:46:39.802Z,106.27
2019-01-20T19:49:13.951Z,103.62
2019-01-20T19:51:49.664Z,105.07
2019-01-20T19:54:21.142Z,105.63
2019-01-20T19:56:51.046Z,111.12
2019-01-20T19:59:21.228Z,103.65
2019-01-20T20:01:54.227Z,110.32
2019-01-20T20:04:25.181Z,98.42
2019-01-20T20:06:55.901Z,99.92
2019-01-20T20:09:25.824Z,103.53
2019-01-20T20:11:55.680Z,110.50
2019-01-20T20:14:25.673Z,111.03
2019-01-20T20:16:55.677Z,104.78
2019-01-20T20:19:26.049Z,110.37
2019-01-20T20:21:57.690Z,119.87
2019-01-20T20:24:27.482Z,109.95
2019-01-20T20:26:57.558Z,112.70
2019-01-20T20:29:27.640Z,101.25
2019-01-20T20:32:01.680Z,118.08
2019-01-20T20:34:34.701Z,102.60
2019-01-20T20:37:04.584Z,99.65
2019-01-20T20:39:34.620Z,110.57
2019-01-20T20:42:04.604Z,105.50
2019-01-20T20:44:34.675Z,103.50
2019-01-20T20:47:09.168Z,110.22
2019-01-20T20:49:45.618Z,115.08
2019-01-20T20:52:15.640Z,108.15
2019-01-20T20:54:45.573Z,106.03
2019-01-20T20:57:15.583Z,104.17
2019-01-20T20:59:45.629Z,104.27
2019-01-20T21:02:15.752Z,102.05
2019-01-20T21:04:45.602Z,113.28
2019-01-20T21:07:15.686Z,106.87
2019-01-20T21:09:45.601Z,100.25
2019-01-20T21:12:15.712Z,104.85
2019-01-20T21:14:45.682Z,109.07
2019-01-20T21:17:15.711Z,109.05
2019-01-20T21:19:47.841Z,104.40
2019-01-20T21:22:17.916Z,105.50
2019-01-20T21:24:48.068Z,97.40
2019-01-20T21:27:18.182Z,98.12
2019-01-20T21:29:48.130Z,96.37
2019-01-20T21:32:18.212Z,91.75
2019-01-20T21:34:48.161Z,97.22
2019-01-20T21:37:18.174Z,94.22
2019-01-20T21:39:48.746Z,99.25
2019-01-20T21:42:18.667Z,95.10
2019-01-20T21:44:48.943Z,96.25
2019-01-20T21:47:18.927Z,92.47
2019-01-20T21:49:48.963Z,90.17
2019-01-20T21:52:19.052Z,89.40
2019-01-20T21:54:49.111Z,91.55
2019-01-20T21:57:19.021Z,94.85
2019-01-20T21:59:50.135Z,94.13
2019-01-20T22:02:20.228Z,94.15
2019-01-20T22:04:50.171Z,88.47
2019-01-20T22:07:22.975Z,89.92
2019-01-20T22:09:52.970Z,88.60
2019-01-20T22:12:22.846Z,89.40
2019-01-20T22:14:52.793Z,87.33
2019-01-20T22:17:22.797Z,90.40
2019-01-20T22:19:52.925Z,93.15
2019-01-20T22:22:23.957Z,88.85
2019-01-20T22:24:53.929Z,96.72
2019-01-20T22:27:23.900Z,86.97
2019-01-20T22:29:56.859Z,99.83
2019-01-20T22:32:27.341Z,91.82
2019-01-20T22:34:57.273Z,84.20
2019-01-20T22:37:27.303Z,79.45
2019-01-20T22:39:57.289Z,86.47
2019-01-20T22:42:27.365Z,86.63
2019-01-20T22:44:57.283Z,91.85
2019-01-20T22:47:27.194Z,83.30
2019-01-20T22:49:57.287Z,85.05
2019-01-20T22:52:27.310Z,83.27
2019-01-20T22:54:57.174Z,83.27
2019-01-20T22:57:27.043Z,78.83
2019-01-20T22:59:56.947Z,68.42
2019-01-20T23:02:27.137Z,83.45
2019-01-20T23:04:56.911Z,62.10
2019-01-20T23:07:27.055Z,70.97
2019-01-20T23:09:56.822Z,83.25
2019-01-20T23:12:26.780Z,83.67
2019-01-20T23:14:56.654Z,68.22
2019-01-20T23:17:26.512Z,80.35
2019-01-20T23:19:56.463Z,84.95
2019-01-20T23:22:26.324Z,97.12
2019-01-20T23:24:56.265Z,75.35
2019-01-20T23:27:26.371Z,76.87
2019-01-20T23:29:56.310Z,72.50
2019-01-20T23:32:26.279Z,79.55
2019-01-20T23:34:56.272Z,64.30
2019-01-20T23:37:26.185Z,71.33
2019-01-20T23:39:56.414Z,90.42
2019-01-20T23:42:26.327Z,80.85
2019-01-20T23:44:56.167Z,70.72
2019-01-20T23:47:27.791Z,79.53
2019-01-20T23:49:57.634Z,70.03
2019-01-20T23:52:27.557Z,80.67
2019-01-20T23:54:57.503Z,69.82
2019-01-20T23:57:27.483Z,106.83
2019-01-20T23:59:57.499Z,78.00
